createdAt,value
2023-04-19T00:00:20.583Z,14.60
2023-04-19T00:02:52.267Z,18.20
2023-04-19T00:05:25.014Z,15.00
2023-04-19T00:07:59.733Z,15.30
2023-04-19T00:10:31.251Z,14.90
2023-04-19T00:13:02.693Z,13.70
2023-04-19T00:15:35.507Z,11.30
2023-04-19T00:18:08.851Z,13.50
2023-04-19T00:20:41.514Z,12.30
2023-04-19T00:23:15.660Z,12.70
2023-04-19T00:25:50.322Z,12.70
2023-04-19T00:30:52.105Z,12.10
2023-04-19T00:33:25.925Z,11.30
2023-04-19T00:35:57.304Z,12.40
2023-04-19T00:38:28.921Z,12.10
2023-04-19T00:41:00.840Z,12.60
2023-04-19T00:43:32.335Z,13.00
2023-04-19T00:46:04.130Z,11.30
2023-04-19T00:48:36.436Z,13.30
2023-04-19T00:51:08.365Z,13.80
2023-04-19T00:53:40.680Z,12.00
2023-04-19T00:56:23.963Z,10.10
2023-04-19T00:58:57.951Z,14.10
2023-04-19T01:01:29.525Z,15.90
2023-04-19T01:04:02.046Z,13.10
2023-04-19T01:06:36.181Z,11.30
2023-04-19T01:09:10.816Z,12.20
2023-04-19T01:14:15.526Z,12.50
2023-04-19T01:16:48.334Z,10.00
2023-04-19T01:19:19.827Z,10.70
2023-04-19T01:21:53.938Z,12.90
2023-04-19T01:24:25.688Z,12.40
2023-04-19T01:26:59.412Z,13.60
2023-04-19T01:29:32.439Z,11.60
2023-04-19T01:32:04.063Z,12.80
2023-04-19T01:34:38.518Z,14.90
2023-04-19T01:37:10.282Z,13.50
2023-04-19T01:39:43.249Z,15.50
2023-04-19T01:42:14.911Z,12.70
2023-04-19T01:44:48.512Z,12.80
2023-04-19T01:47:19.974Z,13.50
2023-04-19T01:49:52.859Z,10.90
2023-04-19T01:52:24.406Z,14.40
2023-04-19T01:54:56.028Z,14.60
2023-04-19T01:57:27.804Z,13.50
2023-04-19T02:00:01.291Z,12.60
2023-04-19T02:02:32.896Z,11.40
2023-04-19T02:05:04.302Z,14.20
2023-04-19T02:07:37.908Z,16.00
2023-04-19T02:10:15.881Z,16.90
2023-04-19T02:12:47.519Z,12.90
2023-04-19T02:15:19.197Z,13.10
2023-04-19T02:17:50.937Z,16.20
2023-04-19T02:20:24.284Z,15.40
2023-04-19T02:22:55.810Z,16.10
2023-04-19T02:25:27.464Z,15.80
2023-04-19T02:28:01.605Z,17.20
2023-04-19T02:30:33.233Z,16.60
2023-04-19T02:33:04.742Z,14.40
2023-04-19T02:35:36.501Z,16.90
2023-04-19T02:38:08.178Z,16.30
2023-04-19T02:40:39.714Z,18.00
2023-04-19T02:43:11.676Z,15.10
2023-04-19T02:45:43.265Z,13.60
2023-04-19T02:48:16.692Z,16.70
2023-04-19T02:50:49.517Z,14.10
2023-04-19T02:53:21.664Z,15.70
2023-04-19T02:55:53.268Z,14.40
2023-04-19T02:58:24.834Z,15.30
2023-04-19T03:00:56.584Z,12.50
2023-04-19T03:03:28.995Z,17.00
2023-04-19T03:06:01.375Z,15.20
2023-04-19T03:08:33.586Z,13.30
2023-04-19T03:11:05.142Z,12.60
2023-04-19T03:13:40.048Z,12.00
2023-04-19T03:16:21.020Z,15.30
2023-04-19T03:18:52.632Z,17.20
2023-04-19T03:21:27.499Z,14.20
2023-04-19T03:26:31.954Z,14.40
2023-04-19T03:29:07.231Z,16.30
2023-04-19T03:31:39.645Z,16.50
2023-04-19T03:34:11.163Z,15.40
2023-04-19T03:36:43.432Z,12.90
2023-04-19T03:39:14.820Z,15.50
2023-04-19T03:41:46.372Z,19.90
2023-04-19T03:44:30.705Z,17.00
2023-04-19T03:47:13.100Z,17.10
2023-04-19T03:49:55.929Z,18.10
2023-04-19T03:52:39.231Z,16.40
2023-04-19T03:55:23.247Z,16.20
2023-04-19T03:58:07.583Z,17.00
2023-04-19T04:00:55.165Z,21.20
2023-04-19T04:03:37.689Z,25.30
2023-04-19T04:06:14.222Z,21.80
2023-04-19T04:08:48.923Z,22.10
2023-04-19T04:13:51.992Z,19.20
2023-04-19T04:16:23.855Z,23.30
2023-04-19T04:18:58.002Z,19.80
2023-04-19T04:21:30.200Z,25.40
2023-04-19T04:24:04.082Z,20.80
2023-04-19T04:26:40.859Z,21.60
2023-04-19T04:29:13.868Z,20.00
2023-04-19T04:31:46.097Z,21.30
2023-04-19T04:34:18.133Z,20.80
2023-04-19T04:36:52.146Z,17.10
2023-04-19T04:39:24.293Z,17.20
2023-04-19T04:41:57.939Z,18.00
2023-04-19T04:44:29.403Z,18.30
2023-04-19T04:47:00.878Z,20.00
2023-04-19T04:49:32.371Z,22.00
2023-04-19T04:52:04.025Z,18.80
2023-04-19T04:54:35.394Z,20.50
2023-04-19T04:57:07.002Z,18.20
2023-04-19T04:59:40.222Z,15.40
2023-04-19T05:02:13.109Z,19.70
2023-04-19T05:04:44.832Z,19.50
2023-04-19T05:07:16.330Z,21.10
2023-04-19T05:09:47.904Z,19.80
2023-04-19T05:12:20.936Z,20.60
2023-04-19T05:14:53.673Z,21.30
2023-04-19T05:17:25.513Z,19.60
2023-04-19T05:19:58.187Z,17.30
2023-04-19T05:22:30.780Z,17.70
2023-04-19T05:25:04.583Z,17.00
2023-04-19T05:27:44.779Z,19.60
2023-04-19T05:30:19.495Z,18.30
2023-04-19T05:35:22.123Z,19.00
2023-04-19T05:37:54.295Z,18.50
2023-04-19T05:40:26.735Z,15.10
2023-04-19T05:42:58.837Z,17.60
2023-04-19T05:45:32.924Z,14.40
2023-04-19T05:48:11.221Z,20.20
2023-04-19T05:50:45.474Z,25.80
2023-04-19T05:53:17.404Z,38.10
2023-04-19T05:55:51.210Z,27.60
2023-04-19T05:58:23.652Z,25.80
2023-04-19T06:00:56.253Z,26.00
2023-04-19T06:03:31.062Z,17.60
2023-04-19T06:06:04.110Z,17.90
2023-04-19T06:08:35.935Z,14.50
2023-04-19T06:11:15.843Z,16.00
2023-04-19T06:13:54.891Z,12.80
2023-04-19T06:16:27.893Z,14.60
2023-04-19T06:18:59.849Z,14.10
2023-04-19T06:21:33.389Z,13.00
2023-04-19T06:24:05.347Z,14.80
2023-04-19T06:26:37.156Z,14.70
2023-04-19T06:29:08.762Z,13.10
2023-04-19T06:31:40.310Z,15.20
2023-04-19T06:34:12.616Z,14.20
2023-04-19T06:36:44.248Z,14.40
2023-04-19T06:39:16.520Z,14.50
2023-04-19T06:41:48.007Z,13.10
2023-04-19T06:44:19.989Z,14.10
2023-04-19T06:46:53.452Z,15.20
2023-04-19T06:49:24.917Z,16.40
2023-04-19T06:51:56.916Z,13.50
2023-04-19T06:54:28.745Z,12.90
2023-04-19T06:57:01.170Z,13.50
2023-04-19T06:59:33.881Z,11.80
2023-04-19T07:02:05.442Z,13.70
2023-04-19T07:04:37.524Z,16.10
2023-04-19T07:07:09.365Z,15.30
2023-04-19T07:09:41.776Z,23.90
2023-04-19T07:12:13.760Z,16.50
2023-04-19T07:14:46.192Z,14.50
2023-04-19T07:17:21.828Z,15.70
2023-04-19T07:19:53.725Z,12.50
2023-04-19T07:22:25.805Z,13.20
2023-04-19T07:24:58.884Z,11.40
2023-04-19T07:27:30.665Z,12.50
2023-04-19T07:30:02.267Z,13.10
2023-04-19T07:32:34.017Z,12.40
2023-04-19T07:35:06.500Z,14.70
2023-04-19T07:37:38.488Z,13.20
2023-04-19T07:40:12.569Z,11.70
2023-04-19T07:42:47.056Z,12.70
2023-04-19T07:45:19.225Z,13.70
2023-04-19T07:47:51.073Z,12.90
2023-04-19T07:50:26.952Z,16.00
2023-04-19T07:53:02.603Z,13.40
2023-04-19T07:55:36.199Z,20.00
2023-04-19T07:58:09.573Z,17.50
2023-04-19T08:00:44.540Z,13.90
2023-04-19T08:03:17.769Z,14.80
2023-04-19T08:05:57.180Z,14.80
2023-04-19T08:08:30.693Z,14.40
2023-04-19T08:11:05.828Z,17.90
2023-04-19T08:13:48.597Z,10.30
2023-04-19T08:17:09.055Z,12.60
2023-04-19T08:19:21.576Z,12.90
2023-04-19T08:22:04.380Z,13.10
2023-04-19T08:24:38.194Z,11.50
2023-04-19T08:27:11.716Z,10.30
2023-04-19T08:29:44.695Z,11.80
2023-04-19T08:32:20.118Z,13.70
2023-04-19T08:35:21.256Z,10.60
2023-04-19T08:38:02.048Z,13.80
2023-04-19T08:40:54.533Z,11.20
2023-04-19T08:43:34.304Z,9.40
2023-04-19T08:46:10.377Z,10.10
2023-04-19T08:48:50.320Z,11.90
2023-04-19T08:51:29.117Z,9.90
2023-04-19T08:54:06.611Z,9.10
2023-04-19T08:56:47.337Z,9.80
2023-04-19T08:59:21.242Z,9.50
2023-04-19T09:01:56.524Z,10.00
2023-04-19T09:04:37.003Z,9.60
2023-04-19T09:07:25.331Z,12.00
2023-04-19T09:10:12.210Z,8.30
2023-04-19T09:12:45.636Z,8.70
2023-04-19T09:15:38.822Z,8.20
2023-04-19T09:18:13.245Z,9.20
2023-04-19T09:20:47.027Z,9.50
2023-04-19T09:23:21.878Z,9.10
2023-04-19T09:28:34.921Z,8.30
2023-04-19T09:33:59.085Z,7.60
2023-04-19T09:36:36.676Z,11.60
2023-04-19T09:39:10.370Z,9.80
2023-04-19T09:41:57.164Z,12.90
2023-04-19T09:45:02.214Z,9.50
2023-04-19T09:47:31.097Z,11.10
2023-04-19T09:50:22.771Z,8.00
2023-04-19T09:52:59.958Z,9.50
2023-04-19T09:55:41.278Z,9.20
2023-04-19T09:58:25.066Z,8.20
2023-04-19T10:01:13.310Z,9.20
2023-04-19T10:03:52.158Z,10.10
2023-04-19T10:06:45.897Z,10.90
2023-04-19T10:09:19.795Z,8.20
2023-04-19T10:12:00.481Z,9.50
2023-04-19T10:14:41.407Z,11.30
2023-04-19T10:17:14.535Z,10.10
2023-04-19T10:19:50.130Z,13.50
2023-04-19T10:22:24.522Z,12.30
2023-04-19T10:25:18.122Z,11.50
2023-04-19T10:27:52.197Z,14.20
2023-04-19T10:30:27.722Z,13.40
2023-04-19T10:33:04.921Z,13.50
2023-04-19T10:35:41.891Z,17.20
2023-04-19T10:38:17.148Z,15.40
2023-04-19T10:41:06.380Z,17.40
2023-04-19T10:43:39.807Z,18.00
2023-04-19T10:46:20.660Z,18.70
2023-04-19T10:49:00.204Z,18.30
2023-04-19T10:51:36.130Z,16.80
2023-04-19T10:54:12.922Z,17.00
2023-04-19T10:57:14.135Z,14.70
2023-04-19T10:59:47.101Z,19.80
2023-04-19T11:02:35.224Z,16.80
2023-04-19T11:05:09.157Z,16.20
2023-04-19T11:07:45.851Z,19.70
2023-04-19T11:10:32.356Z,20.50
2023-04-19T11:13:05.500Z,21.80
2023-04-19T11:15:45.054Z,22.20
2023-04-19T11:18:24.578Z,20.30
2023-04-19T11:20:58.525Z,19.10
2023-04-19T11:23:31.734Z,16.70
2023-04-19T11:26:04.443Z,25.20
2023-04-19T11:28:39.162Z,22.40
2023-04-19T11:33:49.159Z,18.60
2023-04-19T11:36:24.205Z,16.70
2023-04-19T11:39:08.533Z,20.70
2023-04-19T11:41:43.644Z,20.90
2023-04-19T11:44:21.714Z,19.40
2023-04-19T11:47:05.654Z,19.60
2023-04-19T11:49:38.615Z,18.00
2023-04-19T11:52:13.960Z,17.00
2023-04-19T11:54:47.812Z,20.10
2023-04-19T11:57:32.379Z,18.50
2023-04-19T12:00:11.513Z,20.70
2023-04-19T12:02:46.949Z,18.80
2023-04-19T12:05:20.323Z,17.50
2023-04-19T12:08:12.598Z,21.50
2023-04-19T12:10:59.891Z,17.30
2023-04-19T12:13:33.339Z,19.20
2023-04-19T12:16:07.889Z,20.40
2023-04-19T12:18:54.061Z,21.30
2023-04-19T12:21:32.612Z,20.10
2023-04-19T12:24:06.944Z,20.50
2023-04-19T12:26:56.320Z,21.70
2023-04-19T12:29:29.806Z,21.90
2023-04-19T12:32:02.380Z,22.50
2023-04-19T12:34:35.569Z,24.40
2023-04-19T12:37:08.193Z,22.70
2023-04-19T12:39:40.931Z,23.80
2023-04-19T12:42:13.979Z,23.90
2023-04-19T12:44:46.847Z,22.40
2023-04-19T12:47:22.282Z,25.20
2023-04-19T12:49:56.614Z,25.50
2023-04-19T12:52:31.806Z,23.80
2023-04-19T12:55:05.235Z,22.00
2023-04-19T12:57:38.679Z,23.00
2023-04-19T13:00:14.037Z,22.20
2023-04-19T13:02:49.309Z,24.90
2023-04-19T13:05:21.684Z,25.40
2023-04-19T13:07:54.525Z,29.00
2023-04-19T13:10:28.930Z,28.20
2023-04-19T13:13:01.692Z,28.10
2023-04-19T13:15:34.246Z,28.20
2023-04-19T13:18:06.109Z,32.00
2023-04-19T13:20:37.832Z,25.30
2023-04-19T13:23:10.046Z,26.50
2023-04-19T13:25:41.849Z,28.80
2023-04-19T13:28:14.523Z,28.60
2023-04-19T13:30:49.596Z,26.60
2023-04-19T13:33:21.485Z,26.10
2023-04-19T13:35:55.564Z,27.70
2023-04-19T13:38:28.282Z,35.20
2023-04-19T13:41:00.442Z,29.20
2023-04-19T13:43:32.951Z,28.40
2023-04-19T13:46:05.059Z,28.70
2023-04-19T13:48:40.773Z,28.20
2023-04-19T13:51:14.503Z,30.10
2023-04-19T13:53:46.512Z,23.80
2023-04-19T13:56:20.076Z,31.30
2023-04-19T13:58:51.743Z,32.50
2023-04-19T14:01:23.543Z,29.40
2023-04-19T14:03:56.606Z,27.40
2023-04-19T14:06:28.522Z,25.30
2023-04-19T14:09:00.740Z,25.10
2023-04-19T14:11:34.940Z,34.50
2023-04-19T14:14:15.813Z,25.70
2023-04-19T14:16:51.075Z,24.20
2023-04-19T14:19:24.707Z,30.30
2023-04-19T14:22:02.073Z,29.40
2023-04-19T14:24:33.962Z,29.80
2023-04-19T14:27:10.205Z,31.30
2023-04-19T14:29:46.529Z,29.20
2023-04-19T14:32:26.551Z,24.00
2023-04-19T14:34:59.098Z,29.90
2023-04-19T14:37:35.337Z,32.30
2023-04-19T14:40:10.958Z,33.60
2023-04-19T14:42:49.154Z,32.80
2023-04-19T14:45:30.835Z,30.10
2023-04-19T14:48:05.609Z,29.40
2023-04-19T14:53:19.559Z,28.80
2023-04-19T14:55:54.008Z,28.20
2023-04-19T14:58:25.734Z,29.00
2023-04-19T15:01:00.099Z,29.10
2023-04-19T15:03:31.905Z,28.30
2023-04-19T15:06:04.061Z,29.30
2023-04-19T15:08:35.850Z,29.50
2023-04-19T15:11:07.873Z,31.00
2023-04-19T15:13:42.365Z,33.70
2023-04-19T15:16:14.059Z,25.80
2023-04-19T15:18:53.572Z,28.30
2023-04-19T15:21:29.859Z,27.50
2023-04-19T15:24:01.707Z,30.20
2023-04-19T15:26:43.629Z,31.00
2023-04-19T15:29:16.250Z,30.40
2023-04-19T15:31:48.274Z,32.00
2023-04-19T15:34:20.380Z,32.30
2023-04-19T15:36:52.176Z,31.40
2023-04-19T15:39:26.007Z,32.20
2023-04-19T15:42:00.517Z,30.60
2023-04-19T15:44:32.501Z,31.20
2023-04-19T15:47:05.128Z,33.00
2023-04-19T15:49:37.189Z,35.90
2023-04-19T15:52:09.962Z,34.70
2023-04-19T15:54:42.073Z,34.60
2023-04-19T15:57:18.235Z,30.90
2023-04-19T15:59:52.272Z,35.30
2023-04-19T16:02:38.147Z,34.80
2023-04-19T16:05:47.738Z,31.70
2023-04-19T16:08:25.591Z,29.30
2023-04-19T16:10:59.293Z,31.70
2023-04-19T16:13:39.128Z,29.10
2023-04-19T16:16:10.940Z,33.20
2023-04-19T16:18:48.594Z,29.50
2023-04-19T16:21:37.638Z,28.00
2023-04-19T16:24:10.361Z,30.50
2023-04-19T16:26:42.680Z,33.70
2023-04-19T16:29:14.742Z,33.90
2023-04-19T16:31:46.645Z,36.10
2023-04-19T16:34:19.377Z,35.90
2023-04-19T16:36:51.218Z,38.10
2023-04-19T16:39:24.324Z,37.30
2023-04-19T16:41:59.668Z,35.60
2023-04-19T16:44:36.923Z,39.80
2023-04-19T16:47:14.404Z,36.40
2023-04-19T16:49:48.321Z,36.00
2023-04-19T16:52:20.307Z,39.20
2023-04-19T16:54:52.102Z,38.30
2023-04-19T16:57:25.201Z,38.80
2023-04-19T17:00:05.197Z,37.40
2023-04-19T17:02:37.900Z,38.60
2023-04-19T17:05:20.661Z,36.90
2023-04-19T17:07:52.979Z,36.90
2023-04-19T17:10:26.687Z,36.20
2023-04-19T17:12:58.279Z,35.50
2023-04-19T17:15:30.447Z,35.60
2023-04-19T17:18:02.323Z,35.30
2023-04-19T17:20:36.190Z,37.70
2023-04-19T17:23:08.216Z,38.60
2023-04-19T17:25:41.579Z,40.80
2023-04-19T17:28:22.168Z,40.60
2023-04-19T17:30:56.630Z,50.10
2023-04-19T17:33:34.291Z,49.80
2023-04-19T17:36:07.280Z,65.50
2023-04-19T17:38:56.954Z,73.80
2023-04-19T17:41:30.362Z,45.60
2023-04-19T17:44:05.190Z,45.90
2023-04-19T17:46:40.767Z,45.00
2023-04-19T17:49:14.422Z,44.50
2023-04-19T17:51:47.766Z,47.60
2023-04-19T17:54:21.463Z,48.30
2023-04-19T17:56:55.801Z,42.50
2023-04-19T17:59:29.134Z,42.50
2023-04-19T18:02:07.588Z,41.30
2023-04-19T18:04:45.199Z,38.60
2023-04-19T18:07:18.983Z,35.40
2023-04-19T18:09:52.371Z,37.40
2023-04-19T18:12:25.550Z,37.40
2023-04-19T18:15:00.830Z,36.90
2023-04-19T18:17:38.204Z,39.20
2023-04-19T18:20:16.425Z,41.20
2023-04-19T18:22:49.809Z,39.50
2023-04-19T18:25:25.529Z,39.50
2023-04-19T18:27:59.826Z,44.10
2023-04-19T18:30:37.410Z,40.70
2023-04-19T18:33:10.378Z,78.60
2023-04-19T18:35:43.517Z,51.40
2023-04-19T18:38:17.997Z,52.40
2023-04-19T18:40:51.242Z,46.90
2023-04-19T18:43:24.513Z,54.60
2023-04-19T18:46:01.706Z,44.20
2023-04-19T18:48:34.216Z,46.00
2023-04-19T18:51:10.213Z,48.80
2023-04-19T18:53:43.778Z,42.30
2023-04-19T18:56:19.410Z,42.10
2023-04-19T18:58:53.789Z,42.60
2023-04-19T19:01:28.916Z,41.20
2023-04-19T19:04:35.020Z,42.20
2023-04-19T19:07:18.303Z,41.60
2023-04-19T19:10:15.966Z,40.00
2023-04-19T19:12:55.446Z,40.50
2023-04-19T19:15:49.439Z,37.90
2023-04-19T19:18:24.480Z,37.30
2023-04-19T19:21:01.263Z,39.40
2023-04-19T19:23:42.112Z,38.20
2023-04-19T19:26:17.820Z,39.00
2023-04-19T19:28:53.700Z,41.40
2023-04-19T19:31:28.629Z,43.30
2023-04-19T19:34:14.724Z,41.40
2023-04-19T19:37:11.410Z,41.40
2023-04-19T19:39:52.217Z,44.90
2023-04-19T19:42:28.796Z,40.90
2023-04-19T19:45:03.519Z,42.80
2023-04-19T19:52:55.798Z,47.10
2023-04-19T19:55:34.033Z,47.20
2023-04-19T20:00:48.630Z,49.70
2023-04-19T20:03:36.069Z,55.00
2023-04-19T20:07:02.959Z,60.70
2023-04-19T20:09:05.488Z,49.40
2023-04-19T20:11:47.628Z,54.50
2023-04-19T20:14:20.902Z,54.00
2023-04-19T20:16:55.340Z,50.50
2023-04-19T20:19:28.041Z,51.40
2023-04-19T20:22:02.681Z,54.90
2023-04-19T20:24:37.907Z,52.40
2023-04-19T20:27:10.593Z,50.30
2023-04-19T20:29:43.209Z,50.50
2023-04-19T20:32:16.601Z,50.50
2023-04-19T20:34:49.340Z,45.50
2023-04-19T20:37:25.347Z,44.50
2023-04-19T20:40:19.972Z,46.20
2023-04-19T20:42:56.569Z,45.20
2023-04-19T20:45:31.340Z,41.80
2023-04-19T20:48:05.587Z,53.90
2023-04-19T20:50:40.200Z,49.30
2023-04-19T20:53:13.835Z,47.80
2023-04-19T20:55:46.262Z,48.00
2023-04-19T20:58:22.108Z,48.10
2023-04-19T21:00:54.032Z,51.40
2023-04-19T21:03:26.323Z,54.10
2023-04-19T21:05:57.968Z,59.60
2023-04-19T21:08:30.085Z,62.20
2023-04-19T21:11:01.656Z,69.10
2023-04-19T21:13:34.346Z,57.40
2023-04-19T21:16:06.589Z,60.40
2023-04-19T21:18:39.140Z,85.40
2023-04-19T21:21:10.647Z,77.50
2023-04-19T21:23:42.176Z,73.00
2023-04-19T21:26:14.594Z,54.40
2023-04-19T21:28:46.476Z,61.60
2023-04-19T21:31:19.521Z,57.70
2023-04-19T21:33:51.079Z,57.20
2023-04-19T21:36:22.950Z,58.80
2023-04-19T21:38:55.655Z,51.60
2023-04-19T21:41:27.354Z,44.50
2023-04-19T21:43:59.200Z,49.90
2023-04-19T21:46:31.084Z,56.70
2023-04-19T21:49:03.189Z,51.60
2023-04-19T21:51:34.574Z,53.20
2023-04-19T21:54:06.763Z,48.60
2023-04-19T21:56:41.857Z,42.60
2023-04-19T21:59:21.638Z,43.40
2023-04-19T22:01:54.265Z,42.50
2023-04-19T22:04:26.568Z,42.30
2023-04-19T22:07:02.731Z,46.20
2023-04-19T22:09:35.709Z,42.20
2023-04-19T22:12:14.053Z,48.10
2023-04-19T22:14:46.428Z,46.80
2023-04-19T22:17:20.165Z,46.70
2023-04-19T22:19:51.988Z,44.50
2023-04-19T22:22:23.788Z,42.50
2023-04-19T22:24:58.017Z,44.70
2023-04-19T22:27:30.158Z,51.50
2023-04-19T22:30:04.587Z,47.30
2023-04-19T22:32:36.596Z,44.80
2023-04-19T22:35:11.610Z,46.00
2023-04-19T22:37:43.303Z,43.50
2023-04-19T22:40:18.499Z,42.30
2023-04-19T22:42:50.011Z,43.80
2023-04-19T22:45:22.907Z,38.40
2023-04-19T22:47:54.305Z,39.00
2023-04-19T22:50:28.696Z,38.00
2023-04-19T22:53:00.133Z,37.50
2023-04-19T22:55:31.806Z,36.30
2023-04-19T22:58:05.099Z,44.30
2023-04-19T23:00:36.824Z,35.30
2023-04-19T23:03:08.404Z,37.70
2023-04-19T23:05:40.476Z,41.20
2023-04-19T23:08:13.271Z,35.80
2023-04-19T23:10:45.536Z,34.70
2023-04-19T23:13:17.420Z,37.40
2023-04-19T23:15:48.875Z,39.00
2023-04-19T23:18:21.608Z,43.60
2023-04-19T23:20:53.235Z,45.70
2023-04-19T23:23:24.888Z,45.40
2023-04-19T23:25:56.259Z,39.30
2023-04-19T23:28:27.711Z,41.30
2023-04-19T23:30:59.167Z,39.80
2023-04-19T23:33:30.659Z,39.60
2023-04-19T23:36:05.022Z,35.80
2023-04-19T23:38:36.564Z,31.70
2023-04-19T23:41:08.149Z,33.00
2023-04-19T23:43:39.811Z,31.20
2023-04-19T23:46:15.760Z,31.40
2023-04-19T23:48:47.705Z,30.80
2023-04-19T23:51:19.157Z,34.10
2023-04-19T23:53:50.885Z,35.40
2023-04-19T23:56:22.282Z,33.40
2023-04-19T23:58:53.796Z,31.10
